Time;durP1;ratioP1;P1;durP2;ratioP2;P2;SDS_P1;SDS_P2;PMS_P1;PMS_P2;Temp;Humidity;BMP_temperature;BMP_pressure;BME280_temperature;BME280_humidity;BME280_pressure;Samples;Min_cycle;Max_cycle;Signal;HPM_P1;HPM_P2
2021/04/27 04:06:07;;;;;;;1.10;1.00;;;;;;;23.46;50.68;97967.06;22374521;23;20217;-77
2021/04/27 04:16:27;;;;;;;1.13;1.00;;;;;;;23.45;50.54;97970.69;20567362;28;20330;-77
2021/04/27 04:26:30;;;;;;;1.33;1.23;;;;;;;23.46;50.69;97972.31;20535950;28;20370;-77
2021/04/27 04:36:50;;;;;;;1.13;1.03;;;;;;;23.46;50.42;97967.84;20559705;28;20223;-77
2021/04/27 04:47:15;;;;;;;1.00;0.90;;;;;;;23.50;50.38;97963.06;20541149;28;20231;-77
2021/04/27 04:57:35;;;;;;;1.20;1.10;;;;;;;23.54;50.24;97964.28;20553395;28;20223;-77
2021/04/27 05:07:42;;;;;;;1.10;1.00;;;;;;;23.58;50.15;97966.31;20535373;28;20235;-77
2021/04/27 05:18:03;;;;;;;1.03;1.03;;;;;;;23.63;50.02;97952.63;20550211;28;20227;-77
2021/04/27 05:28:05;;;;;;;1.00;0.90;;;;;;;23.65;50.28;97953.25;20501936;28;20216;-75
2021/04/27 05:38:07;;;;;;;3.63;2.70;;;;;;;23.26;42.32;97945.25;20507923;28;20592;-71
2021/04/27 05:48:09;;;;;;;3.87;2.17;;;;;;;22.63;39.67;97948.09;20540490;28;20750;-68
2021/04/27 05:58:11;;;;;;;4.20;2.50;;;;;;;23.03;41.46;97952.53;20532183;28;20248;-69
2021/04/27 06:08:14;;;;;;;4.87;3.03;;;;;;;23.27;42.52;97949.50;20506845;28;20243;-70
2021/04/27 06:18:15;;;;;;;5.10;3.00;;;;;;;23.39;43.45;97945.31;20545867;28;20216;-70
2021/04/27 06:28:17;;;;;;;3.23;2.93;;;;;;;23.46;43.91;97935.69;20521774;28;20208;-69
2021/04/27 06:38:19;;;;;;;3.77;2.50;;;;;;;23.57;44.01;97937.72;20515576;28;20592;-69
2021/04/27 06:48:22;;;;;;;7.37;2.10;;;;;;;23.72;44.51;97930.53;20531440;28;20216;-70
2021/04/27 06:58:23;;;;;;;3.30;2.10;;;;;;;23.85;44.77;97924.50;20482912;28;20232;-70
2021/04/27 07:08:26;;;;;;;2.63;1.40;;;;;;;23.96;45.03;97922.13;20481976;28;20236;-70
2021/04/27 07:18:28;;;;;;;2.97;1.57;;;;;;;24.06;44.92;97912.09;20527538;28;20216;-70
2021/04/27 07:28:31;;;;;;;2.70;1.40;;;;;;;24.15;45.14;97908.25;20544886;28;20231;-71
2021/04/27 07:38:32;;;;;;;3.30;1.20;;;;;;;24.29;45.08;97902.00;20514991;28;20259;-71
2021/04/27 07:48:35;;;;;;;1.73;1.17;;;;;;;24.36;45.26;97915.91;20478141;28;20220;-70
2021/04/27 07:58:36;;;;;;;1.13;0.93;;;;;;;24.44;45.02;97907.84;20503905;28;20220;-71
2021/04/27 08:08:39;;;;;;;6.10;1.10;;;;;;;24.57;45.41;97907.00;20537778;28;20774;-71
2021/04/27 08:18:40;;;;;;;1.07;0.97;;;;;;;24.64;45.19;97902.56;20529607;28;20603;-70
2021/04/27 08:28:43;;;;;;;1.10;0.87;;;;;;;24.69;45.03;97893.13;20540883;28;20238;-70
2021/04/27 08:38:44;;;;;;;1.10;1.00;;;;;;;24.81;45.13;97901.16;20545727;28;20224;-70
2021/04/27 08:48:47;;;;;;;1.03;0.93;;;;;;;24.94;44.93;97889.81;20558548;28;20280;-71
2021/04/27 08:58:49;;;;;;;1.60;0.80;;;;;;;25.05;44.87;97891.78;20517408;28;20220;-72
2021/04/27 09:08:53;;;;;;;1.00;0.80;;;;;;;25.15;44.90;97879.03;20503284;28;20219;-73
2021/04/27 09:18:54;;;;;;;1.20;0.90;;;;;;;25.26;45.01;97863.47;20490653;28;20637;-72
2021/04/27 09:28:57;;;;;;;0.70;0.70;;;;;;;25.38;44.89;97868.88;20489613;28;20208;-71
2021/04/27 09:38:59;;;;;;;0.70;0.70;;;;;;;25.44;44.87;97850.47;20493224;28;20587;-71
2021/04/27 09:49:02;;;;;;;0.90;0.77;;;;;;;25.55;44.59;97846.38;20513910;28;20212;-72
2021/04/27 09:59:04;;;;;;;0.87;0.80;;;;;;;25.64;44.57;97850.31;20523325;28;20224;-72
2021/04/27 10:09:10;;;;;;;0.87;0.73;;;;;;;25.73;44.56;97839.38;20521015;28;20220;-73
2021/04/27 10:19:12;;;;;;;1.10;0.80;;;;;;;25.85;44.49;97826.38;20506784;28;20248;-70
2021/04/27 10:29:18;;;;;;;1.87;0.80;;;;;;;25.97;44.63;97814.94;20520444;28;20286;-72
2021/04/27 10:39:36;;;;;;;4.37;1.10;;;;;;;26.12;44.71;97791.00;20539979;28;20256;-73
2021/04/27 10:49:42;;;;;;;3.97;1.00;;;;;;;26.21;44.54;97789.69;20528434;28;20207;-71
2021/04/27 10:59:55;;;;;;;1.20;1.10;;;;;;;26.29;44.60;97772.84;20538621;28;20216;-70
2021/04/27 11:10:29;;;;;;;1.83;1.10;;;;;;;26.36;44.42;97765.72;20538479;28;20974;-70
2021/04/27 11:20:52;;;;;;;3.93;1.70;;;;;;;26.39;44.61;97760.78;20503779;28;20284;-70
2021/04/27 11:30:54;;;;;;;1.30;1.20;;;;;;;26.43;44.64;97742.78;20531504;28;20212;-70
2021/04/27 11:40:56;;;;;;;1.30;1.20;;;;;;;26.45;44.47;97740.72;20523155;28;20226;-71
2021/04/27 11:50:58;;;;;;;1.73;1.30;;;;;;;26.50;44.37;97723.28;20542983;28;20266;-71
2021/04/27 12:01:01;;;;;;;1.80;1.07;;;;;;;26.54;44.57;97716.56;20499872;28;20224;-70
2021/04/27 12:11:13;;;;;;;3.00;1.50;;;;;;;26.55;44.57;97702.41;20507725;28;20296;-70
2021/04/27 12:21:27;;;;;;;2.70;1.30;;;;;;;26.58;44.59;97685.38;20524977;28;20220;-71
2021/04/27 12:31:29;;;;;;;2.10;1.13;;;;;;;26.60;44.73;97694.66;20468653;28;20251;-72
2021/04/27 12:41:39;;;;;;;3.83;2.37;;;;;;;26.19;38.20;97685.88;20447706;28;20307;-72
2021/04/27 12:51:40;;;;;;;2.93;1.93;;;;;;;26.35;39.32;97666.88;20470323;28;20231;-71
2021/04/27 13:01:43;;;;;;;3.03;2.00;;;;;;;26.38;40.27;97669.88;20477785;28;20224;-72
2021/04/27 13:11:56;;;;;;;3.63;2.00;;;;;;;26.37;41.19;97647.28;20515674;28;20278;-72
2021/04/27 13:22:09;;;;;;;2.80;2.30;;;;;;;26.38;41.90;97637.53;20512003;28;20274;-72
2021/04/27 13:32:16;;;;;;;3.23;2.63;;;;;;;26.38;41.85;97627.84;20475061;28;20263;-72
2021/04/27 13:42:18;;;;;;;4.90;2.00;;;;;;;26.34;42.50;97612.75;20536477;28;20219;-72
2021/04/27 13:52:20;;;;;;;5.27;2.27;;;;;;;26.27;42.94;97593.66;20499994;28;20224;-72
2021/04/27 14:02:23;;;;;;;4.67;2.27;;;;;;;26.26;43.32;97594.69;20487847;28;20673;-72
2021/04/27 14:12:26;;;;;;;4.33;1.67;;;;;;;26.20;43.33;97585.84;20528991;28;20217;-69
2021/04/27 14:22:28;;;;;;;3.10;2.03;;;;;;;26.15;43.37;97574.41;20508621;28;20367;-69
2021/04/27 14:32:30;;;;;;;2.80;1.80;;;;;;;26.07;43.81;97557.16;20533259;28;20239;-69
2021/04/27 14:42:32;;;;;;;2.07;1.87;;;;;;;26.00;44.13;97553.78;20521913;28;20224;-71
2021/04/27 14:52:34;;;;;;;3.03;1.83;;;;;;;25.93;44.06;97545.19;20520032;28;20587;-70
2021/04/27 15:02:36;;;;;;;4.30;1.70;;;;;;;25.86;44.31;97540.00;20524422;28;20251;-70
2021/04/27 15:12:38;;;;;;;3.03;1.73;;;;;;;25.81;45.23;97531.19;20541719;28;20276;-69
2021/04/27 15:22:40;;;;;;;2.60;2.10;;;;;;;25.73;44.99;97526.25;20536164;28;20227;-69
2021/04/27 15:32:43;;;;;;;4.03;2.10;;;;;;;25.67;45.72;97506.94;20495168;28;20391;-71
2021/04/27 15:42:46;;;;;;;8.07;3.40;;;;;;;25.65;46.36;97502.94;20472323;28;20707;-69
2021/04/27 15:52:47;;;;;;;4.80;2.87;;;;;;;25.65;47.94;97498.47;20481110;28;20276;-69
2021/04/27 16:02:51;;;;;;;4.77;2.50;;;;;;;25.63;47.84;97486.63;20481084;28;20236;-70
2021/04/27 16:12:52;;;;;;;6.30;2.70;;;;;;;25.58;48.52;97483.84;20482810;28;20286;-69
2021/04/27 16:22:55;;;;;;;3.93;3.03;;;;;;;25.54;48.58;97487.91;20487304;28;20247;-70
2021/04/27 16:32:56;;;;;;;4.50;2.57;;;;;;;25.49;48.66;97480.72;20500348;28;20271;-74
2021/04/27 16:42:59;;;;;;;6.07;2.80;;;;;;;25.43;48.68;97475.56;20494632;28;20224;-75
2021/04/27 16:53:00;;;;;;;5.33;2.43;;;;;;;25.38;48.42;97473.59;20489040;28;20224;-75
2021/04/27 17:03:04;;;;;;;2.70;2.37;;;;;;;25.35;48.60;97475.84;20494283;28;20220;-74
2021/04/27 17:13:05;;;;;;;9.30;2.37;;;;;;;25.30;48.33;97475.69;20513728;28;20746;-72
2021/04/27 17:23:08;;;;;;;5.20;2.27;;;;;;;25.26;48.84;97479.75;20507715;28;20427;-71
2021/04/27 17:33:10;;;;;;;6.70;2.17;;;;;;;25.22;48.93;97483.84;20498750;28;20217;-75
2021/04/27 17:43:12;;;;;;;3.03;2.13;;;;;;;25.18;48.99;97487.91;20508535;28;20248;-71
2021/04/27 17:53:14;;;;;;;5.80;2.57;;;;;;;25.11;48.63;97487.19;20508913;28;20240;-76
2021/04/27 18:03:17;;;;;;;2.70;2.00;;;;;;;25.06;48.76;97495.72;20499655;28;20240;-77
2021/04/27 18:13:18;;;;;;;3.77;2.50;;;;;;;25.03;48.96;97495.34;20499870;28;20271;-76
2021/04/27 18:23:22;;;;;;;6.53;2.90;;;;;;;24.98;48.92;97498.63;20503502;28;20229;-73
2021/04/27 18:33:24;;;;;;;3.00;2.33;;;;;;;24.96;49.19;97505.06;20521067;28;20252;-76
2021/04/27 18:43:28;;;;;;;2.83;1.80;;;;;;;24.93;48.79;97505.50;20517198;28;20224;-74
2021/04/27 18:53:29;;;;;;;5.20;1.60;;;;;;;24.89;49.10;97518.25;20541231;28;20266;-72
2021/04/27 19:03:35;;;;;;;3.73;2.37;;;;;;;24.85;49.19;97513.66;20522781;28;20220;-73
2021/04/27 19:13:37;;;;;;;6.47;2.00;;;;;;;24.78;49.27;97527.59;20572396;28;20311;-78
2021/04/27 19:23:40;;;;;;;2.30;2.10;;;;;;;24.78;49.30;97530.22;20502523;28;20220;-77
2021/04/27 19:33:42;;;;;;;3.00;2.13;;;;;;;24.68;47.80;97527.28;20509386;28;20208;-73
2021/04/27 19:43:44;;;;;;;2.47;2.27;;;;;;;24.71;48.45;97545.22;20516223;28;20704;-75
2021/04/27 19:53:46;;;;;;;2.80;1.97;;;;;;;24.71;49.03;97539.16;20519755;28;20239;-79
2021/04/27 20:03:50;;;;;;;1.90;1.80;;;;;;;24.71;49.13;97550.47;20516696;28;20248;-78
2021/04/27 20:13:53;;;;;;;2.30;2.10;;;;;;;24.69;49.30;97552.50;20537869;28;20283;-79
2021/04/27 20:23:56;;;;;;;3.50;2.20;;;;;;;24.66;49.44;97537.16;20527457;28;20247;-77
2021/04/27 20:33:57;;;;;;;4.90;2.20;;;;;;;24.63;49.33;97550.66;20529913;28;20216;-79
2021/04/27 20:44:00;;;;;;;4.70;2.20;;;;;;;24.61;49.46;97547.50;20532521;28;20243;-78
2021/04/27 20:54:02;;;;;;;3.27;2.30;;;;;;;24.58;49.44;97552.34;20542688;28;20220;-79
2021/04/27 21:04:07;;;;;;;3.50;2.10;;;;;;;24.58;49.53;97549.72;20524126;28;20239;-80
2021/04/27 21:14:10;;;;;;;7.77;3.00;;;;;;;24.55;49.55;97544.88;20530319;28;20208;-79
2021/04/27 21:24:12;;;;;;;1.97;1.87;;;;;;;24.53;49.84;97542.47;20528947;28;20224;-78
2021/04/27 21:34:14;;;;;;;2.77;2.10;;;;;;;24.50;50.20;97548.16;20523774;28;20216;-77
2021/04/27 21:44:16;;;;;;;2.40;2.20;;;;;;;24.49;49.87;97541.31;20513881;28;20262;-78
2021/04/27 21:54:22;;;;;;;1.70;1.60;;;;;;;24.47;50.24;97545.16;20503628;28;20633;-80
2021/04/27 22:04:25;;;;;;;4.60;3.83;;;;;;;23.37;39.75;97536.81;20542155;28;20220;-79
2021/04/27 22:14:26;;;;;;;3.80;3.33;;;;;;;23.73;42.89;97531.84;20556347;28;20754;-79
2021/04/27 22:24:29;;;;;;;4.27;3.57;;;;;;;23.83;43.61;97534.81;20559542;28;20844;-80
2021/04/27 22:34:30;;;;;;;4.23;3.67;;;;;;;23.88;44.55;97532.38;20573408;28;20219;-80
2021/04/27 22:44:33;;;;;;;4.07;3.67;;;;;;;23.90;44.95;97532.16;20561147;28;20290;-79
2021/04/27 22:54:34;;;;;;;4.23;3.80;;;;;;;23.92;45.74;97532.75;20570969;28;20219;-79
